sensor_id;sensor_type;location;lat;lon;timestamp;pressure;altitude;pressure_sealevel;temperature;humidity
76358;BME280;65185;21.060;105.826;2024-03-23T00:53:46;100889.81;;;22.80;100.00
76358;BME280;65185;21.060;105.826;2024-03-23T00:56:13;100891.34;;;22.84;100.00
76358;BME280;65185;21.060;105.826;2024-03-23T00:58:40;100874.31;;;22.90;100.00
76358;BME280;65185;21.060;105.826;2024-03-23T01:01:07;100884.72;;;22.93;100.00
76358;BME280;65185;21.060;105.826;2024-03-23T01:03:34;100892.56;;;22.94;100.00
76358;BME280;65185;21.060;105.826;2024-03-23T01:06:02;100887.38;;;22.93;100.00
76358;BME280;65185;21.060;105.826;2024-03-23T01:08:32;100892.56;;;22.94;100.00
76358;BME280;65185;21.060;105.826;2024-03-23T01:11:01;100897.75;;;22.96;100.00
76358;BME280;65185;21.060;105.826;2024-03-23T01:13:28;100901.28;;;22.96;100.00
76358;BME280;65185;21.060;105.826;2024-03-23T01:15:56;100903.03;;;22.96;100.00
76358;BME280;65185;21.060;105.826;2024-03-23T01:18:24;100906.56;;;22.96;100.00
76358;BME280;65185;21.060;105.826;2024-03-23T01:20:52;100903.91;;;22.96;100.00
76358;BME280;65185;21.060;105.826;2024-03-23T01:23:19;100894.97;;;22.99;100.00
76358;BME280;65185;21.060;105.826;2024-03-23T01:25:53;100904.50;;;23.01;100.00
76358;BME280;65185;21.060;105.826;2024-03-23T01:28:21;100907.94;;;23.03;100.00
76358;BME280;65185;21.060;105.826;2024-03-23T01:30:49;100906.69;;;23.10;100.00
76358;BME280;65185;21.060;105.826;2024-03-23T01:33:16;100902.88;;;23.16;100.00
76358;BME280;65185;21.060;105.826;2024-03-23T01:35:43;100906.25;;;23.18;100.00
76358;BME280;65185;21.060;105.826;2024-03-23T01:38:10;100910.63;;;23.19;100.00
76358;BME280;65185;21.060;105.826;2024-03-23T01:40:37;100902.69;;;23.19;100.00
76358;BME280;65185;21.060;105.826;2024-03-23T01:43:05;100907.91;;;23.20;100.00
76358;BME280;65185;21.060;105.826;2024-03-23T01:45:34;100917.53;;;23.21;100.00
76358;BME280;65185;21.060;105.826;2024-03-23T01:48:02;100918.47;;;23.20;100.00
76358;BME280;65185;21.060;105.826;2024-03-23T01:50:30;100919.34;;;23.21;100.00
76358;BME280;65185;21.060;105.826;2024-03-23T01:53:04;100918.47;;;23.20;100.00
76358;BME280;65185;21.060;105.826;2024-03-23T01:55:33;100909.69;;;23.20;100.00
76358;BME280;65185;21.060;105.826;2024-03-23T01:58:00;100919.34;;;23.21;100.00
76358;BME280;65185;21.060;105.826;2024-03-23T02:00:27;100920.16;;;23.21;100.00
76358;BME280;65185;21.060;105.826;2024-03-23T02:02:54;100922.66;;;23.24;100.00
76358;BME280;65185;21.060;105.826;2024-03-23T02:05:22;100926.09;;;23.26;100.00
76358;BME280;65185;21.060;105.826;2024-03-23T02:07:50;100930.22;;;23.32;100.00
76358;BME280;65185;21.060;105.826;2024-03-23T02:10:17;100943.44;;;23.32;100.00
76358;BME280;65185;21.060;105.826;2024-03-23T02:12:44;100943.34;;;23.33;100.00
76358;BME280;65185;21.060;105.826;2024-03-23T02:15:11;100941.56;;;23.34;100.00
76358;BME280;65185;21.060;105.826;2024-03-23T02:17:38;100936.34;;;23.32;100.00
76358;BME280;65185;21.060;105.826;2024-03-23T02:20:05;100936.34;;;23.32;100.00
76358;BME280;65185;21.060;105.826;2024-03-23T02:22:39;100943.44;;;23.32;100.00
76358;BME280;65185;21.060;105.826;2024-03-23T02:25:06;100945.22;;;23.31;100.00
76358;BME280;65185;21.060;105.826;2024-03-23T02:27:33;100948.56;;;23.35;100.00
76358;BME280;65185;21.060;105.826;2024-03-23T02:30:05;100953.84;;;23.35;100.00
76358;BME280;65185;21.060;105.826;2024-03-23T02:32:32;100946.50;;;23.40;100.00
76358;BME280;65185;21.060;105.826;2024-03-23T02:34:59;100946.47;;;23.41;100.00
76358;BME280;65185;21.060;105.826;2024-03-23T02:37:26;100944.66;;;23.42;100.00
76358;BME280;65185;21.060;105.826;2024-03-23T02:39:53;100948.25;;;23.41;100.00
76358;BME280;65185;21.060;105.826;2024-03-23T02:42:20;100954.22;;;23.44;100.00
76358;BME280;65185;21.060;105.826;2024-03-23T02:44:47;100950.72;;;23.44;100.00
76358;BME280;65185;21.060;105.826;2024-03-23T02:47:14;100950.63;;;23.45;100.00
76358;BME280;65185;21.060;105.826;2024-03-23T02:49:41;100956.28;;;23.55;100.00
76358;BME280;65185;21.060;105.826;2024-03-23T02:52:08;100946.56;;;23.55;100.00
76358;BME280;65185;21.060;105.826;2024-03-23T02:54:35;100950.97;;;23.55;100.00
76358;BME280;65185;21.060;105.826;2024-03-23T02:57:03;100953.47;;;23.58;100.00
76358;BME280;65185;21.060;105.826;2024-03-23T02:59:31;100953.22;;;23.62;100.00
76358;BME280;65185;21.060;105.826;2024-03-23T03:01:58;100943.50;;;23.63;100.00
76358;BME280;65185;21.060;105.826;2024-03-23T03:04:26;100944.41;;;23.62;100.00
76358;BME280;65185;21.060;105.826;2024-03-23T03:06:53;100946.72;;;23.68;100.00
76358;BME280;65185;21.060;105.826;2024-03-23T03:09:20;100942.31;;;23.68;100.00
76358;BME280;65185;21.060;105.826;2024-03-23T03:11:47;100941.09;;;23.74;100.00
76358;BME280;65185;21.060;105.826;2024-03-23T03:14:14;100943.16;;;23.85;100.00
76358;BME280;65185;21.060;105.826;2024-03-23T03:16:41;100936.75;;;23.89;100.00
76358;BME280;65185;21.060;105.826;2024-03-23T03:19:08;100931.03;;;23.96;100.00
76358;BME280;65185;21.060;105.826;2024-03-23T03:21:37;100933.09;;;24.07;100.00
76358;BME280;65185;21.060;105.826;2024-03-23T03:24:06;100932.75;;;24.13;100.00
76358;BME280;65185;21.060;105.826;2024-03-23T03:26:33;100928.63;;;24.23;100.00
76358;BME280;65185;21.060;105.826;2024-03-23T03:29:00;100928.19;;;24.30;100.00
76358;BME280;65185;21.060;105.826;2024-03-23T03:31:27;100920.81;;;24.35;100.00
76358;BME280;65185;21.060;105.826;2024-03-23T03:33:54;100925.09;;;24.38;100.00
76358;BME280;65185;21.060;105.826;2024-03-23T03:36:21;100924.22;;;24.37;100.00
76358;BME280;65185;21.060;105.826;2024-03-23T03:38:48;100922.19;;;24.42;100.00
76358;BME280;65185;21.060;105.826;2024-03-23T03:41:16;100912.28;;;24.60;100.00
76358;BME280;65185;21.060;105.826;2024-03-23T03:43:43;100919.47;;;24.74;100.00
76358;BME280;65185;21.060;105.826;2024-03-23T03:46:10;100916.81;;;24.88;100.00
76358;BME280;65185;21.060;105.826;2024-03-23T03:48:37;100914.38;;;24.85;100.00
76358;BME280;65185;21.060;105.826;2024-03-23T03:51:04;100910.19;;;24.81;100.00
76358;BME280;65185;21.060;105.826;2024-03-23T03:53:32;100901.94;;;24.85;100.00
76358;BME280;65185;21.060;105.826;2024-03-23T03:56:02;100891.84;;;25.06;100.00
76358;BME280;65185;21.060;105.826;2024-03-23T03:58:29;100889.09;;;25.21;100.00
76358;BME280;65185;21.060;105.826;2024-03-23T04:00:56;100890.63;;;25.39;100.00
76358;BME280;65185;21.060;105.826;2024-03-23T04:03:23;100879.50;;;25.33;100.00
76358;BME280;65185;21.060;105.826;2024-03-23T04:05:52;100869.38;;;25.25;100.00
76358;BME280;65185;21.060;105.826;2024-03-23T04:08:19;100876.50;;;25.39;100.00
76358;BME280;65185;21.060;105.826;2024-03-23T04:10:47;100875.56;;;25.40;100.00
76358;BME280;65185;21.060;105.826;2024-03-23T04:13:14;100862.56;;;25.35;100.00
76358;BME280;65185;21.060;105.826;2024-03-23T04:15:41;100868.34;;;25.42;100.00
76358;BME280;65185;21.060;105.826;2024-03-23T04:18:09;100862.97;;;25.70;100.00
76358;BME280;65185;21.060;105.826;2024-03-23T04:20:36;100857.88;;;25.94;100.00
76358;BME280;65185;21.060;105.826;2024-03-23T04:23:03;100849.06;;;25.93;100.00
76358;BME280;65185;21.060;105.826;2024-03-23T04:25:30;100846.59;;;25.90;100.00
76358;BME280;65185;21.060;105.826;2024-03-23T04:27:58;100843.19;;;25.88;100.00
76358;BME280;65185;21.060;105.826;2024-03-23T04:30:25;100843.66;;;25.95;100.00
76358;BME280;65185;21.060;105.826;2024-03-23T04:32:53;100825.88;;;26.09;100.00
76358;BME280;65185;21.060;105.826;2024-03-23T04:35:20;100837.25;;;26.11;100.00
76358;BME280;65185;21.060;105.826;2024-03-23T04:37:51;100829.06;;;26.14;100.00
76358;BME280;65185;21.060;105.826;2024-03-23T04:40:28;100821.56;;;26.21;100.00
76358;BME280;65185;21.060;105.826;2024-03-23T04:42:55;100829.84;;;26.29;100.00
76358;BME280;65185;21.060;105.826;2024-03-23T04:45:22;100819.97;;;26.31;100.00
76358;BME280;65185;21.060;105.826;2024-03-23T04:47:49;100819.66;;;26.35;100.00
76358;BME280;65185;21.060;105.826;2024-03-23T04:50:16;100812.63;;;26.22;100.00
76358;BME280;65185;21.060;105.826;2024-03-23T04:52:43;100803.56;;;26.12;100.00
76358;BME280;65185;21.060;105.826;2024-03-23T04:55:10;100800.56;;;26.04;100.00
76358;BME280;65185;21.060;105.826;2024-03-23T04:57:38;100795.25;;;26.04;100.00
76358;BME280;65185;21.060;105.826;2024-03-23T05:00:06;100788.53;;;25.98;100.00
76358;BME280;65185;21.060;105.826;2024-03-23T05:02:44;100786.41;;;26.03;100.00
76358;BME280;65185;21.060;105.826;2024-03-23T05:05:12;100781.22;;;26.02;100.00
76358;BME280;65185;21.060;105.826;2024-03-23T05:07:39;100768.22;;;25.97;100.00
76358;BME280;65185;21.060;105.826;2024-03-23T05:10:09;100757.13;;;26.05;100.00
76358;BME280;65185;21.060;105.826;2024-03-23T05:12:37;100742.91;;;26.18;100.00
76358;BME280;65185;21.060;105.826;2024-03-23T05:15:05;100742.69;;;26.21;100.00
76358;BME280;65185;21.060;105.826;2024-03-23T05:17:34;100746.63;;;26.28;100.00
76358;BME280;65185;21.060;105.826;2024-03-23T05:20:02;100728.88;;;26.29;100.00
76358;BME280;65185;21.060;105.826;2024-03-23T05:22:29;100734.09;;;26.30;100.00
76358;BME280;65185;21.060;105.826;2024-03-23T05:24:57;100725.91;;;26.33;100.00
76358;BME280;65185;21.060;105.826;2024-03-23T05:27:24;100720.59;;;26.46;100.00
76358;BME280;65185;21.060;105.826;2024-03-23T05:29:51;100720.38;;;26.49;100.00
76358;BME280;65185;21.060;105.826;2024-03-23T05:32:18;100714.84;;;26.52;100.00
76358;BME280;65185;21.060;105.826;2024-03-23T05:34:45;100711.88;;;26.44;100.00
76358;BME280;65185;21.060;105.826;2024-03-23T05:37:12;100709.22;;;26.31;100.00
76358;BME280;65185;21.060;105.826;2024-03-23T05:39:39;100708.78;;;26.25;100.00
76358;BME280;65185;21.060;105.826;2024-03-23T05:42:06;100699.38;;;26.21;100.00
76358;BME280;65185;21.060;105.826;2024-03-23T05:44:34;100693.31;;;26.19;100.00
76358;BME280;65185;21.060;105.826;2024-03-23T05:47:01;100690.94;;;26.14;100.00
76358;BME280;65185;21.060;105.826;2024-03-23T05:49:28;100683.50;;;26.07;100.00
76358;BME280;65185;21.060;105.826;2024-03-23T05:51:55;100672.13;;;26.05;100.00
76358;BME280;65185;21.060;105.826;2024-03-23T05:54:22;100663.66;;;26.12;100.00
76358;BME280;65185;21.060;105.826;2024-03-23T05:56:49;100656.75;;;26.22;100.00
76358;BME280;65185;21.060;105.826;2024-03-23T05:59:16;100652.34;;;26.46;100.00
76358;BME280;65185;21.060;105.826;2024-03-23T06:01:43;100658.94;;;26.53;100.00
76358;BME280;65185;21.060;105.826;2024-03-23T06:04:10;100646.16;;;26.58;100.00
76358;BME280;65185;21.060;105.826;2024-03-23T06:06:37;100647.22;;;26.56;100.00
76358;BME280;65185;21.060;105.826;2024-03-23T06:09:04;100632.97;;;26.57;100.00
76358;BME280;65185;21.060;105.826;2024-03-23T06:11:31;100624.25;;;26.55;100.00
76358;BME280;65185;21.060;105.826;2024-03-23T06:13:58;100615.13;;;26.59;100.00
76358;BME280;65185;21.060;105.826;2024-03-23T06:16:25;100611.84;;;26.55;100.00
76358;BME280;65185;21.060;105.826;2024-03-23T06:18:53;100607.16;;;26.59;100.00
76358;BME280;65185;21.060;105.826;2024-03-23T06:21:21;100614.38;;;26.70;100.00
76358;BME280;65185;21.060;105.826;2024-03-23T06:23:52;100601.81;;;26.72;100.00
76358;BME280;65185;21.060;105.826;2024-03-23T06:26:19;100605.22;;;26.74;100.00
76358;BME280;65185;21.060;105.826;2024-03-23T06:28:47;100602.31;;;26.77;100.00
76358;BME280;65185;21.060;105.826;2024-03-23T06:31:14;100600.91;;;26.84;100.00
76358;BME280;65185;21.060;105.826;2024-03-23T06:33:42;100586.41;;;26.88;100.00
76358;BME280;65185;21.060;105.826;2024-03-23T06:36:12;100592.59;;;26.88;100.00
76358;BME280;65185;21.060;105.826;2024-03-23T06:38:39;100590.31;;;26.95;100.00
76358;BME280;65185;21.060;105.826;2024-03-23T06:41:06;100582.81;;;26.89;100.00
76358;BME280;65185;21.060;105.826;2024-03-23T06:43:33;100576.47;;;26.79;100.00
76358;BME280;65185;21.060;105.826;2024-03-23T06:46:01;100577.53;;;26.76;100.00
76358;BME280;65185;21.060;105.826;2024-03-23T06:48:30;100574.38;;;26.71;100.00
76358;BME280;65185;21.060;105.826;2024-03-23T06:51:00;100566.06;;;26.76;100.00
76358;BME280;65185;21.060;105.826;2024-03-23T06:53:30;100567.75;;;26.77;100.00
76358;BME280;65185;21.060;105.826;2024-03-23T06:55:58;100554.81;;;26.72;100.00
76358;BME280;65185;21.060;105.826;2024-03-23T06:58:25;100550.97;;;26.63;100.00
76358;BME280;65185;21.060;105.826;2024-03-23T07:00:53;100562.59;;;26.62;100.00
76358;BME280;65185;21.060;105.826;2024-03-23T07:03:20;100557.28;;;26.62;100.00
76358;BME280;65185;21.060;105.826;2024-03-23T07:05:47;100544.84;;;26.63;100.00
76358;BME280;65185;21.060;105.826;2024-03-23T07:08:14;100547.25;;;26.66;100.00
76358;BME280;65185;21.060;105.826;2024-03-23T07:10:47;100542.97;;;26.76;100.00
76358;BME280;65185;21.060;105.826;2024-03-23T07:13:14;100539.59;;;26.61;100.00
76358;BME280;65185;21.060;105.826;2024-03-23T07:15:41;100533.28;;;26.51;100.00
76358;BME280;65185;21.060;105.826;2024-03-23T07:18:08;100533.59;;;26.47;100.00
76358;BME280;65185;21.060;105.826;2024-03-23T07:20:36;100531.31;;;26.42;100.00
76358;BME280;65185;21.060;105.826;2024-03-23T07:23:03;100523.53;;;26.39;100.00
76358;BME280;65185;21.060;105.826;2024-03-23T07:25:30;100518.47;;;26.36;100.00
76358;BME280;65185;21.060;105.826;2024-03-23T07:27:57;100510.09;;;26.30;100.00
76358;BME280;65185;21.060;105.826;2024-03-23T07:30:25;100503.19;;;26.27;100.00
76358;BME280;65185;21.060;105.826;2024-03-23T07:32:52;100508.50;;;26.27;100.00
76358;BME280;65185;21.060;105.826;2024-03-23T07:35:20;100499.06;;;26.23;100.00
76358;BME280;65185;21.060;105.826;2024-03-23T07:37:47;100501.22;;;26.18;100.00
76358;BME280;65185;21.060;105.826;2024-03-23T07:40:14;100493.47;;;26.15;100.00
76358;BME280;65185;21.060;105.826;2024-03-23T07:42:41;100496.41;;;26.23;100.00
76358;BME280;65185;21.060;105.826;2024-03-23T07:45:08;100502.13;;;26.30;100.00
76358;BME280;65185;21.060;105.826;2024-03-23T07:47:35;100492.88;;;26.35;100.00
76358;BME280;65185;21.060;105.826;2024-03-23T07:50:02;100489.97;;;26.38;100.00
76358;BME280;65185;21.060;105.826;2024-03-23T07:52:29;100490.28;;;26.46;100.00
76358;BME280;65185;21.060;105.826;2024-03-23T07:54:57;100487.25;;;26.51;100.00
76358;BME280;65185;21.060;105.826;2024-03-23T07:57:24;100482.91;;;26.50;100.00
76358;BME280;65185;21.060;105.826;2024-03-23T07:59:51;100485.56;;;26.50;100.00
76358;BME280;65185;21.060;105.826;2024-03-23T08:02:18;100489.28;;;26.47;100.00
76358;BME280;65185;21.060;105.826;2024-03-23T08:04:45;100496.09;;;26.51;100.00
76358;BME280;65185;21.060;105.826;2024-03-23T08:07:12;100482.06;;;26.73;100.00
76358;BME280;65185;21.060;105.826;2024-03-23T08:09:39;100484.66;;;26.62;100.00
76358;BME280;65185;21.060;105.826;2024-03-23T08:12:06;100480.50;;;26.58;100.00
76358;BME280;65185;21.060;105.826;2024-03-23T08:14:33;100477.66;;;26.61;100.00
76358;BME280;65185;21.060;105.826;2024-03-23T08:17:01;100471.22;;;26.63;100.00
76358;BME280;65185;21.060;105.826;2024-03-23T08:19:28;100466.03;;;26.62;100.00
76358;BME280;65185;21.060;105.826;2024-03-23T08:21:55;100465.91;;;26.63;100.00
76358;BME280;65185;21.060;105.826;2024-03-23T08:24:22;100463.38;;;26.86;100.00
76358;BME280;65185;21.060;105.826;2024-03-23T08:26:49;100462.34;;;26.99;100.00
76358;BME280;65185;21.060;105.826;2024-03-23T08:29:16;100463.97;;;26.89;100.00
76358;BME280;65185;21.060;105.826;2024-03-23T08:31:43;100470.69;;;26.71;100.00
76358;BME280;65185;21.060;105.826;2024-03-23T08:34:10;100466.41;;;26.57;100.00
76358;BME280;65185;21.060;105.826;2024-03-23T08:36:37;100465.06;;;26.52;100.00
76358;BME280;65185;21.060;105.826;2024-03-23T08:39:04;100459.09;;;26.48;100.00
76358;BME280;65185;21.060;105.826;2024-03-23T08:41:31;100462.47;;;26.50;100.00
76358;BME280;65185;21.060;105.826;2024-03-23T08:43:58;100466.22;;;26.48;100.00
76358;BME280;65185;21.060;105.826;2024-03-23T08:46:26;100468.28;;;26.44;100.00
76358;BME280;65185;21.060;105.826;2024-03-23T08:48:53;100468.47;;;26.41;100.00
76358;BME280;65185;21.060;105.826;2024-03-23T08:51:20;100468.72;;;26.38;100.00
76358;BME280;65185;21.060;105.826;2024-03-23T08:53:47;100467.75;;;26.39;100.00
76358;BME280;65185;21.060;105.826;2024-03-23T08:56:14;100473.22;;;26.49;100.00
76358;BME280;65185;21.060;105.826;2024-03-23T08:58:42;100474.22;;;26.48;100.00
76358;BME280;65185;21.060;105.826;2024-03-23T09:01:10;100473.34;;;26.47;100.00
76358;BME280;65185;21.060;105.826;2024-03-23T09:03:39;100472.59;;;26.45;100.00
76358;BME280;65185;21.060;105.826;2024-03-23T09:06:08;100474.66;;;26.42;100.00
76358;BME280;65185;21.060;105.826;2024-03-23T09:08:35;100477.44;;;26.40;100.00
76358;BME280;65185;21.060;105.826;2024-03-23T09:11:06;100470.31;;;26.41;100.00
76358;BME280;65185;21.060;105.826;2024-03-23T09:13:35;100472.00;;;26.42;100.00
76358;BME280;65185;21.060;105.826;2024-03-23T09:16:03;100480.81;;;26.42;100.00
76358;BME280;65185;21.060;105.826;2024-03-23T09:18:35;100477.44;;;26.40;100.00
76358;BME280;65185;21.060;105.826;2024-03-23T09:21:03;100476.81;;;26.37;100.00
76358;BME280;65185;21.060;105.826;2024-03-23T09:23:30;100466.91;;;26.39;100.00
76358;BME280;65185;21.060;105.826;2024-03-23T09:25:57;100473.19;;;26.38;100.00
76358;BME280;65185;21.060;105.826;2024-03-23T09:28:24;100484.66;;;26.38;100.00
76358;BME280;65185;21.060;105.826;2024-03-23T09:30:51;100482.31;;;26.34;100.00
76358;BME280;65185;21.060;105.826;2024-03-23T09:33:18;100479.03;;;26.30;100.00
76358;BME280;65185;21.060;105.826;2024-03-23T09:35:45;100481.19;;;26.25;100.00
76358;BME280;65185;21.060;105.826;2024-03-23T09:38:14;100484.84;;;26.24;100.00
76358;BME280;65185;21.060;105.826;2024-03-23T09:40:44;100492.06;;;26.22;100.00
76358;BME280;65185;21.060;105.826;2024-03-23T09:43:12;100494.38;;;26.27;100.00
76358;BME280;65185;21.060;105.826;2024-03-23T09:45:40;100489.78;;;26.29;100.00
76358;BME280;65185;21.060;105.826;2024-03-23T09:48:09;100492.69;;;26.26;100.00
76358;BME280;65185;21.060;105.826;2024-03-23T09:50:38;100486.63;;;26.24;100.00
76358;BME280;65185;21.060;105.826;2024-03-23T09:53:07;100498.94;;;26.25;100.00
76358;BME280;65185;21.060;105.826;2024-03-23T09:55:35;100488.31;;;26.25;100.00
76358;BME280;65185;21.060;105.826;2024-03-23T09:58:03;100497.38;;;26.22;100.00
76358;BME280;65185;21.060;105.826;2024-03-23T10:00:34;100505.53;;;26.19;100.00
76358;BME280;65185;21.060;105.826;2024-03-23T10:03:02;100508.44;;;26.16;100.00
76358;BME280;65185;21.060;105.826;2024-03-23T10:05:29;100509.50;;;26.14;100.00
76358;BME280;65185;21.060;105.826;2024-03-23T10:10:42;100515.44;;;26.17;100.00
76358;BME280;65185;21.060;105.826;2024-03-23T10:13:09;100505.53;;;26.19;100.00
76358;BME280;65185;21.060;105.826;2024-03-23T10:15:37;100515.50;;;26.28;100.00
76358;BME280;65185;21.060;105.826;2024-03-23T10:18:19;100517.66;;;26.23;100.00
76358;BME280;65185;21.060;105.826;2024-03-23T10:23:43;100528.38;;;26.22;100.00
76358;BME280;65185;21.060;105.826;2024-03-23T10:26:21;100516.91;;;26.21;100.00
76358;BME280;65185;21.060;105.826;2024-03-23T10:28:56;100524.06;;;26.21;100.00
76358;BME280;65185;21.060;105.826;2024-03-23T10:31:49;100519.16;;;26.15;100.00
76358;BME280;65185;21.060;105.826;2024-03-23T10:34:16;100525.88;;;26.08;100.00
76358;BME280;65185;21.060;105.826;2024-03-23T10:36:43;100526.16;;;26.03;100.00
76358;BME280;65185;21.060;105.826;2024-03-23T10:39:11;100531.47;;;26.03;100.00
76358;BME280;65185;21.060;105.826;2024-03-23T10:41:40;100531.72;;;26.00;100.00
76358;BME280;65185;21.060;105.826;2024-03-23T10:44:08;100542.34;;;26.00;100.00
76358;BME280;65185;21.060;105.826;2024-03-23T10:46:35;100546.28;;;25.95;100.00
76358;BME280;65185;21.060;105.826;2024-03-23T10:49:04;100554.88;;;25.98;100.00
76358;BME280;65185;21.060;105.826;2024-03-23T10:51:31;100558.16;;;26.02;100.00
76358;BME280;65185;21.060;105.826;2024-03-23T10:53:58;100555.50;;;26.02;100.00
76358;BME280;65185;21.060;105.826;2024-03-23T10:56:28;100561.97;;;25.98;100.00
76358;BME280;65185;21.060;105.826;2024-03-23T10:59:01;100562.09;;;25.96;100.00
76358;BME280;65185;21.060;105.826;2024-03-23T11:01:28;100567.06;;;25.88;100.00
76358;BME280;65185;21.060;105.826;2024-03-23T11:03:55;100575.28;;;25.85;100.00
76358;BME280;65185;21.060;105.826;2024-03-23T11:06:36;100572.38;;;25.88;100.00
76358;BME280;65185;21.060;105.826;2024-03-23T11:09:03;100574.41;;;25.85;100.00
76358;BME280;65185;21.060;105.826;2024-03-23T11:11:31;100578.16;;;25.82;100.00
76358;BME280;65185;21.060;105.826;2024-03-23T11:13:59;100577.59;;;25.77;100.00
76358;BME280;65185;21.060;105.826;2024-03-23T11:16:28;100586.63;;;25.75;100.00
76358;BME280;65185;21.060;105.826;2024-03-23T11:19:39;100592.78;;;25.75;100.00
76358;BME280;65185;21.060;105.826;2024-03-23T11:22:07;100594.78;;;25.72;100.00
76358;BME280;65185;21.060;105.826;2024-03-23T11:24:34;100607.53;;;25.66;100.00
76358;BME280;65185;21.060;105.826;2024-03-23T11:27:01;100617.63;;;25.61;100.00
76358;BME280;65185;21.060;105.826;2024-03-23T11:29:30;100615.91;;;25.60;100.00
76358;BME280;65185;21.060;105.826;2024-03-23T11:31:57;100615.91;;;25.60;100.00
76358;BME280;65185;21.060;105.826;2024-03-23T11:34:25;100621.22;;;25.60;100.00
76358;BME280;65185;21.060;105.826;2024-03-23T11:37:04;100626.75;;;25.57;100.00
76358;BME280;65185;21.060;105.826;2024-03-23T11:39:32;100632.06;;;25.57;100.00
76358;BME280;65185;21.060;105.826;2024-03-23T11:41:59;100625.13;;;25.55;100.00
76358;BME280;65185;21.060;105.826;2024-03-23T11:44:27;100636.38;;;25.58;100.00
76358;BME280;65185;21.060;105.826;2024-03-23T11:46:54;100636.72;;;25.54;100.00
76358;BME280;65185;21.060;105.826;2024-03-23T11:49:33;100641.50;;;25.49;100.00
76358;BME280;65185;21.060;105.826;2024-03-23T11:52:07;100641.56;;;25.47;100.00
76358;BME280;65185;21.060;105.826;2024-03-23T11:54:34;100650.50;;;25.46;100.00
76358;BME280;65185;21.060;105.826;2024-03-23T11:57:04;100652.28;;;25.46;100.00
76358;BME280;65185;21.060;105.826;2024-03-23T11:59:38;100663.13;;;25.43;100.00
76358;BME280;65185;21.060;105.826;2024-03-23T12:02:10;100670.34;;;25.41;100.00
76358;BME280;65185;21.060;105.826;2024-03-23T12:04:40;100673.72;;;25.43;100.00
76358;BME280;65185;21.060;105.826;2024-03-23T12:09:41;100676.69;;;25.38;100.00
76358;BME280;65185;21.060;105.826;2024-03-23T12:12:14;100682.84;;;25.39;100.00
76358;BME280;65185;21.060;105.826;2024-03-23T12:15:01;100681.91;;;25.40;100.00
76358;BME280;65185;21.060;105.826;2024-03-23T12:17:28;100681.16;;;25.38;100.00
76358;BME280;65185;21.060;105.826;2024-03-23T12:19:55;100684.72;;;25.37;100.00
76358;BME280;65185;21.060;105.826;2024-03-23T12:22:23;100689.25;;;25.35;100.00
76358;BME280;65185;21.060;105.826;2024-03-23T12:24:50;100691.28;;;25.31;100.00
76358;BME280;65185;21.060;105.826;2024-03-23T12:27:18;100698.28;;;25.32;100.00
76358;BME280;65185;21.060;105.826;2024-03-23T12:29:45;100699.22;;;25.31;100.00
76358;BME280;65185;21.060;105.826;2024-03-23T12:32:14;100707.41;;;25.28;100.00
76358;BME280;65185;21.060;105.826;2024-03-23T12:34:42;100712.06;;;25.25;100.00
76358;BME280;65185;21.060;105.826;2024-03-23T12:37:09;100714.81;;;25.23;100.00
76358;BME280;65185;21.060;105.826;2024-03-23T12:39:36;100728.06;;;25.23;100.00
76358;BME280;65185;21.060;105.826;2024-03-23T12:42:03;100731.75;;;25.21;100.00
76358;BME280;65185;21.060;105.826;2024-03-23T12:44:30;100725.72;;;25.19;100.00
76358;BME280;65185;21.060;105.826;2024-03-23T12:46:57;100734.63;;;25.18;100.00
76358;BME280;65185;21.060;105.826;2024-03-23T12:49:24;100749.69;;;25.17;100.00
76358;BME280;65185;21.060;105.826;2024-03-23T12:51:56;100749.97;;;25.13;100.00
76358;BME280;65185;21.060;105.826;2024-03-23T12:54:23;100763.22;;;25.13;100.00
76358;BME280;65185;21.060;105.826;2024-03-23T12:56:51;100764.09;;;25.13;100.00
76358;BME280;65185;21.060;105.826;2024-03-23T12:59:18;100763.13;;;25.14;100.00
76358;BME280;65185;21.060;105.826;2024-03-23T13:01:45;100771.75;;;25.18;100.00
76358;BME280;65185;21.060;105.826;2024-03-23T13:04:12;100770.50;;;25.23;100.00
76358;BME280;65185;21.060;105.826;2024-03-23T13:06:40;100782.38;;;25.18;100.00
76358;BME280;65185;21.060;105.826;2024-03-23T13:09:07;100780.44;;;25.20;100.00
76358;BME280;65185;21.060;105.826;2024-03-23T13:11:35;100770.13;;;25.15;100.00
76358;BME280;65185;21.060;105.826;2024-03-23T13:14:02;100786.25;;;25.12;100.00
76358;BME280;65185;21.060;105.826;2024-03-23T13:16:30;100793.56;;;25.09;100.00
76358;BME280;65185;21.060;105.826;2024-03-23T13:18:57;100789.84;;;25.11;100.00
76358;BME280;65185;21.060;105.826;2024-03-23T13:21:24;100799.59;;;25.11;100.00
76358;BME280;65185;21.060;105.826;2024-03-23T13:23:51;100810.28;;;25.09;100.00
76358;BME280;65185;21.060;105.826;2024-03-23T13:26:18;100807.00;;;25.06;100.00